Time;durP1;ratioP1;P1;durP2;ratioP2;P2;SDS_P1;SDS_P2;PMS_P1;PMS_P2;Temp;Humidity;BMP_temperature;BMP_pressure;BME280_temperature;BME280_humidity;BME280_pressure;Samples;Min_cycle;Max_cycle;Signal;HPM_P1;HPM_P2
2023/07/18 00:00:17;;;;;;;7.37;1.97;;;;;;;21.97;72.02;100339.09;5069840;28;20332;-60
2023/07/18 00:02:50;;;;;;;5.03;2.13;;;;;;;21.86;70.62;100338.06;5060467;28;20055;-60
2023/07/18 00:05:21;;;;;;;4.53;1.70;;;;;;;21.84;69.44;100322.22;5071091;28;20052;-60
2023/07/18 00:07:52;;;;;;;4.03;2.00;;;;;;;21.82;71.21;100318.78;5059741;28;20054;-59
2023/07/18 00:10:22;;;;;;;2.77;1.97;;;;;;;21.96;71.64;100321.41;5070043;28;20052;-59
2023/07/18 00:12:53;;;;;;;3.93;2.03;;;;;;;22.08;70.33;100318.94;5060918;28;20074;-59
2023/07/18 00:15:24;;;;;;;3.27;1.70;;;;;;;22.13;69.52;100309.72;5072110;28;20048;-59
2023/07/18 00:17:57;;;;;;;2.70;1.90;;;;;;;21.83;67.64;100312.50;5058759;28;20040;-56
2023/07/18 00:20:27;;;;;;;3.13;1.90;;;;;;;21.56;69.86;100307.09;5069063;28;20145;-59
2023/07/18 00:22:59;;;;;;;2.80;1.90;;;;;;;21.58;69.94;100307.00;5059285;28;20934;-57
2023/07/18 00:25:30;;;;;;;4.20;2.10;;;;;;;21.97;74.20;100307.19;5074593;28;20155;-60
2023/07/18 00:28:00;;;;;;;3.73;1.80;;;;;;;22.11;71.96;100265.53;5083319;28;20116;-61
2023/07/18 00:30:34;;;;;;;3.13;1.97;;;;;;;22.53;70.03;100314.31;5114077;28;20043;-61
2023/07/18 00:33:06;;;;;;;2.70;1.80;;;;;;;22.67;71.34;100295.63;5114159;28;20074;-61
2023/07/18 00:35:37;;;;;;;6.20;2.30;;;;;;;23.02;71.25;100300.44;5114434;28;20051;-60
2023/07/18 00:38:07;;;;;;;2.50;1.93;;;;;;;23.27;69.60;100293.41;5114171;28;20043;-60
2023/07/18 00:40:40;;;;;;;4.00;1.77;;;;;;;23.40;68.05;100294.28;5114061;28;20074;-60
2023/07/18 00:43:15;;;;;;;6.30;1.93;;;;;;;23.53;68.53;100297.78;5113943;28;20458;-60
2023/07/18 00:45:49;;;;;;;4.93;2.00;;;;;;;23.56;67.40;100286.88;5114160;28;20047;-61
2023/07/18 00:48:21;;;;;;;3.37;1.80;;;;;;;23.54;66.55;100280.84;5114093;28;20058;-61
2023/07/18 00:50:52;;;;;;;4.83;1.90;;;;;;;23.31;63.94;100273.56;5114115;28;20068;-61
2023/07/18 00:53:28;;;;;;;2.37;1.80;;;;;;;23.24;62.97;100284.66;5094356;28;20131;-61
2023/07/18 00:56:00;;;;;;;3.07;1.90;;;;;;;23.18;62.63;100277.06;5084970;28;20044;-63
2023/07/18 00:58:31;;;;;;;5.70;1.90;;;;;;;23.09;62.82;100264.41;5090768;28;20056;-61
2023/07/18 01:01:02;;;;;;;3.13;1.60;;;;;;;23.23;65.36;100250.97;5061484;28;20067;-58
2023/07/18 01:03:34;;;;;;;4.77;2.03;;;;;;;23.32;64.29;100256.63;5100564;28;20135;-61
2023/07/18 01:06:06;;;;;;;5.17;1.97;;;;;;;23.33;65.43;100234.34;5117884;28;20044;-61
2023/07/18 01:08:38;;;;;;;8.97;2.60;;;;;;;23.52;65.14;100229.41;5117908;28;20049;-61
2023/07/18 01:11:09;;;;;;;3.43;1.90;;;;;;;23.82;66.12;100252.22;5111830;28;20050;-57
2023/07/18 01:13:40;;;;;;;3.87;1.90;;;;;;;23.86;64.08;100264.38;5075944;28;20101;-58
2023/07/18 01:16:10;;;;;;;4.07;1.87;;;;;;;23.88;62.43;100262.44;5075145;28;20079;-57
2023/07/18 01:18:42;;;;;;;4.13;2.00;;;;;;;23.65;61.31;100262.25;5079809;28;20036;-58
2023/07/18 01:21:18;;;;;;;5.13;1.90;;;;;;;23.24;60.99;100233.19;5077336;28;20424;-57
2023/07/18 01:23:50;;;;;;;6.50;2.53;;;;;;;23.06;64.46;100207.78;5062086;28;20459;-59
2023/07/18 01:26:21;;;;;;;3.97;1.73;;;;;;;23.56;62.91;100257.56;5074583;28;20138;-59
2023/07/18 01:28:51;;;;;;;5.77;2.03;;;;;;;23.41;62.33;100227.50;5085792;28;20138;-60
2023/07/18 01:31:22;;;;;;;6.37;2.30;;;;;;;23.69;62.24;100263.75;5072154;28;20043;-58
2023/07/18 01:33:53;;;;;;;3.90;2.13;;;;;;;23.91;63.38;100259.56;5061568;28;20056;-59
2023/07/18 01:36:28;;;;;;;6.13;2.47;;;;;;;24.18;63.88;100263.84;5073286;28;20568;-60
2023/07/18 01:38:58;;;;;;;3.53;2.43;;;;;;;24.29;62.90;100258.59;5060666;28;20048;-58
2023/07/18 01:41:29;;;;;;;2.97;2.07;;;;;;;24.44;63.61;100254.78;5072060;28;20134;-58
2023/07/18 01:44:00;;;;;;;4.23;2.47;;;;;;;24.63;64.64;100258.78;5062000;28;20062;-59
2023/07/18 01:46:30;;;;;;;4.73;2.00;;;;;;;24.64;62.76;100260.50;5075482;28;20152;-60
2023/07/18 01:49:04;;;;;;;2.83;2.00;;;;;;;24.64;62.17;100256.00;5079549;28;20047;-60
2023/07/18 01:51:37;;;;;;;6.17;2.00;;;;;;;24.80;62.58;100255.69;5106102;28;20409;-61
2023/07/18 01:54:09;;;;;;;3.03;2.20;;;;;;;25.00;62.67;100254.16;5117160;28;20470;-61
2023/07/18 01:56:40;;;;;;;3.17;1.70;;;;;;;25.17;62.49;100258.22;5098091;28;20062;-60
2023/07/18 01:59:10;;;;;;;5.27;2.23;;;;;;;25.15;60.54;100254.78;5061425;28;20066;-59
2023/07/18 02:01:42;;;;;;;4.80;2.07;;;;;;;25.08;60.13;100254.41;5061790;28;20083;-58
2023/07/18 02:04:13;;;;;;;6.73;2.10;;;;;;;24.59;57.69;100218.09;5072795;28;20047;-59
2023/07/18 02:06:45;;;;;;;4.90;2.13;;;;;;;24.79;61.15;100248.63;5063293;28;20068;-60
2023/07/18 02:09:15;;;;;;;2.60;1.93;;;;;;;24.98;62.58;100243.56;5075279;28;20620;-60
2023/07/18 02:11:46;;;;;;;3.00;1.93;;;;;;;25.02;59.14;100244.19;5067947;28;20130;-59
2023/07/18 02:14:19;;;;;;;6.60;2.17;;;;;;;24.61;58.43;100240.19;5077038;28;20127;-60
2023/07/18 02:16:50;;;;;;;3.97;2.30;;;;;;;24.49;61.37;100236.63;5069948;28;20354;-60
2023/07/18 02:19:20;;;;;;;4.17;2.07;;;;;;;24.71;62.25;100235.88;5086052;28;20046;-59
2023/07/18 02:21:52;;;;;;;4.10;2.20;;;;;;;24.84;62.64;100233.09;5091242;28;20036;-60
2023/07/18 02:24:26;;;;;;;7.60;2.80;;;;;;;24.99;62.68;100233.75;5095835;28;20052;-60
2023/07/18 02:26:56;;;;;;;6.90;2.50;;;;;;;25.08;61.04;100242.88;5096154;28;20143;-61
2023/07/18 02:29:27;;;;;;;7.30;2.23;;;;;;;24.96;62.11;100229.50;5096127;28;20113;-60
2023/07/18 02:31:58;;;;;;;7.03;2.27;;;;;;;24.80;60.70;100223.59;5096027;28;20040;-60
2023/07/18 02:34:29;;;;;;;5.33;2.30;;;;;;;25.13;62.47;100230.00;5095621;28;20113;-60
2023/07/18 02:37:01;;;;;;;5.13;2.00;;;;;;;25.21;59.01;100222.28;5096118;28;20058;-60
2023/07/18 02:39:33;;;;;;;3.87;1.63;;;;;;;24.75;58.07;100212.41;5104401;28;20043;-59
2023/07/18 02:42:04;;;;;;;7.17;2.20;;;;;;;24.45;58.54;100208.44;5106961;28;20139;-59
2023/07/18 02:44:35;;;;;;;5.63;1.87;;;;;;;24.24;58.63;100194.00;5100249;28;20118;-60
2023/07/18 02:47:06;;;;;;;2.00;1.50;;;;;;;24.16;57.58;100159.00;5094488;28;20043;-60
2023/07/18 02:49:36;;;;;;;2.43;1.77;;;;;;;24.69;59.75;100200.38;5083415;28;20119;-60
2023/07/18 02:52:09;;;;;;;5.60;1.90;;;;;;;25.05;62.49;100189.66;5083413;28;20404;-60
2023/07/18 02:54:40;;;;;;;7.63;2.20;;;;;;;25.43;61.93;100191.16;5091800;28;20357;-58
2023/07/18 02:57:10;;;;;;;5.57;1.90;;;;;;;25.57;60.86;100185.53;5073487;28;20130;-60
2023/07/18 02:59:41;;;;;;;6.37;2.57;;;;;;;25.77;60.12;100187.44;5079587;28;20067;-59
2023/07/18 03:02:12;;;;;;;6.43;1.80;;;;;;;25.37;57.91;100099.72;5104675;28;20414;-60
2023/07/18 03:04:43;;;;;;;5.10;2.50;;;;;;;25.81;59.21;100180.88;5116265;28;20055;-60
2023/07/18 03:07:17;;;;;;;5.10;1.97;;;;;;;25.86;58.25;100185.03;5115800;28;20137;-59
2023/07/18 03:09:48;;;;;;;5.97;2.07;;;;;;;25.69;58.34;100157.81;5116045;28;20047;-60
2023/07/18 03:12:20;;;;;;;8.37;2.33;;;;;;;25.85;59.41;100169.94;5076115;28;20080;-59
2023/07/18 03:14:50;;;;;;;5.53;1.80;;;;;;;26.08;59.17;100168.91;5062115;28;20043;-57
2023/07/18 03:17:21;;;;;;;4.60;1.90;;;;;;;26.25;59.03;100171.03;5069865;28;20066;-58
2023/07/18 03:19:52;;;;;;;4.10;2.30;;;;;;;26.32;59.50;100162.50;5061393;28;20135;-57
2023/07/18 03:22:27;;;;;;;4.23;2.13;;;;;;;26.29;58.69;100165.44;5072505;28;20077;-60
2023/07/18 03:25:05;;;;;;;6.07;2.13;;;;;;;26.30;59.13;100156.41;5060675;28;20415;-59
2023/07/18 03:27:36;;;;;;;4.38;1.83;;;;;;;26.35;59.08;100154.19;5072181;28;20058;-56
2023/07/18 03:30:11;;;;;;;6.43;2.17;;;;;;;26.41;58.64;100159.03;5058634;28;20060;-58
2023/07/18 03:32:42;;;;;;;6.40;2.07;;;;;;;26.51;59.12;100149.25;5058942;28;20130;-58
2023/07/18 03:35:14;;;;;;;4.03;2.23;;;;;;;26.58;59.24;100139.72;5070921;28;20443;-59
2023/07/18 03:37:46;;;;;;;5.63;1.97;;;;;;;26.82;59.56;100146.66;5060426;28;20474;-58
2023/07/18 03:40:17;;;;;;;3.57;2.33;;;;;;;26.99;58.92;100162.13;5070562;28;20051;-59
2023/07/18 03:42:47;;;;;;;5.07;2.37;;;;;;;26.72;56.28;100140.38;5060131;28;20054;-60
2023/07/18 03:45:18;;;;;;;5.90;2.20;;;;;;;26.17;57.59;100114.59;5070431;28;20100;-59
2023/07/18 03:47:49;;;;;;;9.90;2.33;;;;;;;26.33;58.22;100140.91;5059373;28;20138;-59
2023/07/18 03:50:19;;;;;;;4.70;2.07;;;;;;;26.35;59.40;100143.47;5070988;28;20051;-58
2023/07/18 03:52:52;;;;;;;3.97;1.90;;;;;;;26.38;57.53;100133.34;5060703;28;20054;-59
2023/07/18 03:55:22;;;;;;;3.87;2.20;;;;;;;26.39;58.58;100132.38;5070335;28;20405;-59
2023/07/18 03:57:53;;;;;;;9.17;2.27;;;;;;;26.53;59.01;100141.94;5060478;28;20048;-59
2023/07/18 04:00:23;;;;;;;3.47;1.90;;;;;;;26.58;57.10;100134.34;5069466;28;20062;-57
2023/07/18 04:02:54;;;;;;;4.73;2.00;;;;;;;26.20;56.68;100135.75;5058641;28;20055;-57
2023/07/18 04:05:27;;;;;;;3.73;1.97;;;;;;;26.27;59.33;100129.88;5071083;28;20052;-60
2023/07/18 04:08:02;;;;;;;6.83;2.00;;;;;;;26.30;57.93;100118.91;5059593;28;20136;-59
2023/07/18 04:10:32;;;;;;;3.27;2.10;;;;;;;26.36;59.74;100119.25;5071373;28;20044;-59
2023/07/18 04:13:03;;;;;;;7.30;2.30;;;;;;;26.60;59.76;100112.78;5060673;28;20047;-60
2023/07/18 04:15:33;;;;;;;10.53;2.63;;;;;;;26.63;59.09;100110.72;5071530;28;20058;-58
2023/07/18 04:18:04;;;;;;;6.00;1.53;;;;;;;26.90;60.71;100109.28;5070034;28;20118;-59
2023/07/18 04:20:35;;;;;;;8.10;1.83;;;;;;;27.11;59.27;100104.72;5070303;28;20154;-58
2023/07/18 04:23:07;;;;;;;3.27;2.07;;;;;;;27.11;57.29;100098.53;5059087;28;20416;-59
2023/07/18 04:25:56;;;;;;;8.60;2.20;;;;;;;27.11;58.14;100088.66;5070529;28;20058;-58
2023/07/18 04:28:28;;;;;;;42.23;5.97;;;;;;;27.11;57.17;100088.66;5068263;28;20749;-57
2023/07/18 04:30:59;;;;;;;7.73;1.97;;;;;;;27.14;57.54;100086.69;5060297;28;20048;-58
2023/07/18 04:33:29;;;;;;;13.27;2.70;;;;;;;27.25;57.88;100089.28;5070087;28;20050;-61
2023/07/18 04:36:00;;;;;;;6.57;1.80;;;;;;;27.17;56.00;100091.75;5058952;28;20123;-57
2023/07/18 04:38:33;;;;;;;3.03;2.00;;;;;;;27.06;56.52;100093.56;5069355;28;20146;-60
2023/07/18 04:41:04;;;;;;;4.30;1.73;;;;;;;26.89;55.42;100083.47;5060322;28;20051;-60
2023/07/18 04:43:34;;;;;;;3.63;1.90;;;;;;;26.77;58.02;100090.75;5070146;28;20051;-60
2023/07/18 04:46:08;;;;;;;2.63;2.07;;;;;;;26.97;57.89;100070.25;5058707;28;20064;-61
2023/07/18 04:48:38;;;;;;;5.97;2.60;;;;;;;27.22;57.97;100076.16;5070244;28;20385;-61
2023/07/18 04:51:09;;;;;;;6.63;1.60;;;;;;;27.33;57.03;100076.00;5060797;28;20066;-60
2023/07/18 04:53:41;;;;;;;10.77;2.00;;;;;;;27.50;56.30;100075.34;5069600;28;20557;-58
2023/07/18 04:56:12;;;;;;;8.60;2.40;;;;;;;27.59;58.24;100076.34;5068728;28;20529;-60
2023/07/18 04:58:43;;;;;;;9.40;2.73;;;;;;;27.73;59.18;100067.91;5058585;28;20052;-59
2023/07/18 05:01:13;;;;;;;4.63;2.20;;;;;;;27.70;57.73;100067.31;5069658;28;20067;-61
2023/07/18 05:03:44;;;;;;;8.60;2.30;;;;;;;27.70;57.39;100061.94;5059237;28;20119;-59
2023/07/18 05:06:34;;;;;;;4.43;2.43;;;;;;;27.74;58.57;100068.75;5069711;28;20474;-60
2023/07/18 05:09:28;;;;;;;7.70;2.10;;;;;;;27.80;59.71;100068.16;5028403;28;20792;-60
2023/07/18 05:12:14;;;;;;;5.27;2.37;;;;;;;27.83;59.12;100059.88;5058846;28;21345;-56
2023/07/18 05:14:45;;;;;;;11.77;3.00;;;;;;;27.66;58.62;100064.09;5032535;28;20052;-60
2023/07/18 05:17:16;;;;;;;4.47;2.57;;;;;;;27.51;59.29;100047.53;5069635;28;20028;-61
2023/07/18 05:19:47;;;;;;;4.80;2.60;;;;;;;27.41;59.38;100046.69;5058713;28;20048;-60
2023/07/18 05:22:18;;;;;;;5.90;2.83;;;;;;;27.45;60.33;100058.81;5070158;28;20122;-61
2023/07/18 05:24:50;;;;;;;11.37;3.20;;;;;;;27.47;60.25;100072.94;5060083;28;20433;-60
2023/07/18 05:27:21;;;;;;;5.33;2.70;;;;;;;27.31;59.84;100067.28;5069526;28;20128;-58
2023/07/18 05:29:52;;;;;;;8.23;3.13;;;;;;;27.15;60.69;100048.13;5057784;28;20453;-60
2023/07/18 05:32:23;;;;;;;5.67;2.80;;;;;;;27.13;60.34;100079.59;5068415;28;20056;-59
2023/07/18 05:34:53;;;;;;;7.50;3.27;;;;;;;27.06;61.19;100080.16;5058816;28;20051;-58
2023/07/18 05:37:25;;;;;;;8.30;2.80;;;;;;;27.08;60.86;100082.69;5068763;28;20048;-60
2023/07/18 05:39:58;;;;;;;8.27;2.93;;;;;;;27.11;61.90;100077.91;5060277;28;20078;-60
2023/07/18 05:42:28;;;;;;;7.83;2.93;;;;;;;27.15;61.49;100072.28;5073446;28;20363;-62
2023/07/18 05:44:59;;;;;;;9.13;3.47;;;;;;;27.03;61.08;100069.72;5062802;28;20056;-59
2023/07/18 05:47:30;;;;;;;4.47;2.40;;;;;;;26.98;62.32;100066.56;5073144;28;20082;-60
2023/07/18 05:50:00;;;;;;;11.83;2.93;;;;;;;27.03;61.27;100068.84;5063676;28;20189;-60
2023/07/18 05:52:31;;;;;;;9.00;2.60;;;;;;;26.92;61.49;100059.06;5071878;28;20052;-59
2023/07/18 05:55:05;;;;;;;4.33;2.60;;;;;;;27.02;61.04;100068.00;5063206;28;20497;-57
2023/07/18 05:57:36;;;;;;;6.63;3.00;;;;;;;26.91;60.18;100062.75;5073032;28;20083;-59
2023/07/18 06:00:10;;;;;;;7.73;3.20;;;;;;;26.64;60.61;100032.00;5062012;28;20055;-58
2023/07/18 06:02:40;;;;;;;12.17;3.23;;;;;;;26.77;60.98;100073.81;5068010;28;20578;-60
2023/07/18 06:05:11;;;;;;;9.87;3.50;;;;;;;26.78;61.21;100064.78;5073016;28;20104;-62
2023/07/18 06:07:42;;;;;;;6.83;2.83;;;;;;;26.87;61.27;100070.19;5060858;28;20357;-60
2023/07/18 06:10:14;;;;;;;7.37;3.00;;;;;;;26.86;60.11;100065.81;5073341;28;20070;-62
2023/07/18 06:12:45;;;;;;;10.13;3.40;;;;;;;26.75;60.43;100070.41;5063223;28;20048;-61
2023/07/18 06:15:16;;;;;;;14.27;3.83;;;;;;;26.68;60.72;100070.09;5073390;28;20056;-62
2023/07/18 06:17:46;;;;;;;12.00;3.37;;;;;;;26.67;60.79;100058.53;5063075;28;20059;-62
2023/07/18 06:20:19;;;;;;;7.33;3.20;;;;;;;26.69;61.07;100061.09;5071345;28;20043;-62
2023/07/18 06:22:49;;;;;;;15.07;4.03;;;;;;;26.67;60.79;100058.53;5062774;28;20139;-61
2023/07/18 06:25:23;;;;;;;13.33;2.80;;;;;;;26.66;60.85;100056.84;5072857;28;20048;-59
2023/07/18 06:27:54;;;;;;;11.13;3.83;;;;;;;26.57;61.16;100063.00;5063996;28;20083;-57
2023/07/18 06:30:24;;;;;;;5.83;2.70;;;;;;;26.43;61.29;100060.63;5073314;28;20401;-60
2023/07/18 06:32:55;;;;;;;4.87;3.37;;;;;;;26.34;61.16;100056.06;5062118;28;20056;-60
2023/07/18 06:35:26;;;;;;;10.70;3.17;;;;;;;26.28;61.23;100056.59;5073141;28;20059;-59
2023/07/18 06:37:56;;;;;;;7.80;3.37;;;;;;;26.20;61.11;100050.03;5061620;28;20122;-60
2023/07/18 06:40:29;;;;;;;8.20;3.13;;;;;;;26.13;62.00;100059.56;5071668;28;20101;-60
2023/07/18 06:42:59;;;;;;;17.93;3.47;;;;;;;25.92;61.32;100062.25;5061456;28;20052;-57
2023/07/18 06:45:32;;;;;;;7.97;3.07;;;;;;;25.85;63.32;100062.88;5072713;28;20772;-59
2023/07/18 06:48:02;;;;;;;8.73;3.33;;;;;;;25.89;62.71;100061.69;5060992;28;20707;-61
2023/07/18 06:50:33;;;;;;;9.43;2.80;;;;;;;25.76;62.00;100068.00;5071198;28;20474;-60
2023/07/18 06:53:04;;;;;;;20.87;4.23;;;;;;;25.61;62.44;100053.22;5060664;28;20139;-61
2023/07/18 06:55:36;;;;;;;11.03;3.30;;;;;;;25.54;62.51;100062.75;5071770;28;20036;-62
2023/07/18 06:58:09;;;;;;;11.13;4.40;;;;;;;25.47;62.90;100061.53;5062434;28;20129;-61
2023/07/18 07:00:41;;;;;;;9.73;3.43;;;;;;;25.42;63.40;100063.75;5071002;28;20050;-60
2023/07/18 07:03:12;;;;;;;9.97;3.77;;;;;;;25.40;63.33;100062.03;5060251;28;20131;-59
2023/07/18 07:05:43;;;;;;;8.10;3.23;;;;;;;25.22;63.37;100058.19;5060956;28;20121;-59
2023/07/18 07:08:18;;;;;;;6.93;3.27;;;;;;;25.14;63.67;100061.44;5072434;28;20282;-59
2023/07/18 07:10:51;;;;;;;7.57;3.03;;;;;;;25.10;64.15;100057.31;5060000;28;20047;-60
2023/07/18 07:13:24;;;;;;;14.60;3.87;;;;;;;25.08;64.28;100055.72;5071157;28;20055;-57
2023/07/18 07:15:55;;;;;;;11.03;3.10;;;;;;;25.09;64.24;100052.09;5061827;28;20052;-60
2023/07/18 07:18:26;;;;;;;5.57;2.90;;;;;;;24.96;64.00;100052.22;5072133;28;20063;-59
2023/07/18 07:20:56;;;;;;;8.50;3.40;;;;;;;24.87;64.36;100048.47;5059827;28;20135;-60
2023/07/18 07:23:28;;;;;;;6.63;3.47;;;;;;;24.82;64.91;100050.66;5070328;28;20728;-61
2023/07/18 07:26:00;;;;;;;8.43;3.10;;;;;;;24.45;64.37;99993.91;5060194;28;20070;-59
2023/07/18 07:28:32;;;;;;;15.87;3.33;;;;;;;24.70;65.30;100041.78;5072289;28;20048;-62
2023/07/18 07:31:05;;;;;;;11.10;3.40;;;;;;;24.72;65.60;100039.84;5062607;28;20118;-63
2023/07/18 07:33:36;;;;;;;14.40;4.63;;;;;;;24.70;65.12;100035.59;5070249;28;20060;-61
2023/07/18 07:36:07;;;;;;;10.03;6.50;;;;;;;24.71;65.46;100043.50;5056535;28;20048;-59
2023/07/18 07:38:38;;;;;;;22.60;5.10;;;;;;;24.57;64.51;100040.22;5070155;28;20109;-63
2023/07/18 07:41:10;;;;;;;20.60;9.10;;;;;;;24.43;64.97;100044.75;5061006;28;20058;-61
2023/07/18 07:43:41;;;;;;;14.73;5.47;;;;;;;24.39;65.63;100054.00;5064239;28;20051;-61
2023/07/18 07:46:11;;;;;;;12.60;3.97;;;;;;;24.13;65.15;100036.44;5072331;28;20052;-61
2023/07/18 07:48:42;;;;;;;17.83;3.67;;;;;;;24.04;65.52;100048.69;5060329;28;20119;-61
2023/07/18 07:51:16;;;;;;;7.67;3.50;;;;;;;23.94;66.20;100053.88;5070430;28;20042;-59
2023/07/18 07:53:47;;;;;;;10.43;3.23;;;;;;;23.89;66.17;100056.03;5060163;28;20048;-62
2023/07/18 07:56:20;;;;;;;13.30;3.63;;;;;;;23.77;66.52;100040.94;5070930;28;20146;-61
2023/07/18 07:58:51;;;;;;;12.67;3.87;;;;;;;23.69;66.16;100052.16;5059291;28;20130;-61
2023/07/18 08:01:40;;;;;;;7.07;3.38;;;;;;;23.47;66.91;100060.88;5071042;28;20391;-61
2023/07/18 08:04:11;;;;;;;8.67;3.27;;;;;;;23.17;68.00;100035.50;5059939;28;20386;-60
2023/07/18 08:06:42;;;;;;;11.77;3.17;;;;;;;23.37;68.05;100059.88;5060312;28;20393;-59
2023/07/18 08:09:13;;;;;;;16.47;8.27;;;;;;;23.44;68.15;100061.13;5071004;28;20055;-57
2023/07/18 08:11:46;;;;;;;9.23;3.57;;;;;;;23.45;67.93;100058.31;5059040;28;20058;-60
2023/07/18 08:14:17;;;;;;;11.57;3.40;;;;;;;23.48;68.74;100058.09;5071098;28;20032;-61
2023/07/18 08:16:48;;;;;;;16.30;3.83;;;;;;;23.47;68.52;100063.56;5060052;28;20086;-58
2023/07/18 08:19:19;;;;;;;8.87;2.90;;;;;;;23.30;68.96;100064.78;5070445;28;20036;-60
2023/07/18 08:21:50;;;;;;;9.90;3.63;;;;;;;22.84;68.97;100041.41;5061152;28;20039;-63
2023/07/18 08:24:21;;;;;;;8.63;3.17;;;;;;;22.54;69.53;100065.69;5070154;28;20056;-62
2023/07/18 08:26:53;;;;;;;11.53;3.20;;;;;;;22.26;70.15;100077.41;5059115;28;20055;-60
2023/07/18 08:29:26;;;;;;;9.30;3.07;;;;;;;22.05;71.01;100074.38;5071624;28;20047;-62
2023/07/18 08:31:56;;;;;;;5.27;2.37;;;;;;;21.72;71.44;100067.66;5059750;28;20457;-61
2023/07/18 08:34:27;;;;;;;7.87;3.10;;;;;;;21.52;72.80;100067.16;5071304;28;20052;-61
2023/07/18 08:36:58;;;;;;;8.80;3.60;;;;;;;21.41;73.43;100064.34;5060893;28;20136;-60
2023/07/18 08:39:29;;;;;;;9.83;2.87;;;;;;;21.27;74.16;100077.66;5069841;28;20117;-62
2023/07/18 08:42:05;;;;;;;9.33;2.80;;;;;;;21.14;74.74;100063.41;5058545;28;20699;-62
2023/07/18 08:44:37;;;;;;;12.97;3.10;;;;;;;20.84;75.43;100037.84;5069136;28;20039;-61
2023/07/18 08:47:10;;;;;;;8.40;2.60;;;;;;;20.94;75.83;100069.97;5059712;28;20411;-62
2023/07/18 08:49:41;;;;;;;15.77;3.57;;;;;;;20.89;76.81;100063.19;5066814;28;20063;-62
2023/07/18 08:52:12;;;;;;;7.10;3.53;;;;;;;20.80;76.74;100078.81;5069746;28;20145;-60
2023/07/18 08:54:43;;;;;;;14.73;2.93;;;;;;;20.75;77.08;100080.91;5058625;28;20048;-61
2023/07/18 08:57:20;;;;;;;12.93;3.17;;;;;;;20.77;77.50;100079.03;5067128;28;20098;-60
2023/07/18 08:59:52;;;;;;;7.00;2.90;;;;;;;20.66;77.46;100045.16;5059357;28;20481;-60
2023/07/18 09:02:29;;;;;;;13.90;3.07;;;;;;;20.83;77.50;100078.63;5069317;28;20060;-64
2023/07/18 09:05:07;;;;;;;14.13;3.27;;;;;;;20.80;77.00;100074.38;5035156;28;20348;-62
2023/07/18 09:11:03;;;;;;;12.70;2.97;;;;;;;21.02;75.70;100076.53;4995637;28;20834;-62
2023/07/18 09:13:42;;;;;;;19.80;3.23;;;;;;;21.14;75.15;100082.00;5007184;28;20619;-61
2023/07/18 09:16:17;;;;;;;13.70;2.65;;;;;;;21.02;74.59;100073.88;5000896;28;20303;-60
2023/07/18 09:18:51;;;;;;;12.17;3.53;;;;;;;21.13;74.73;100085.63;5001119;28;20107;-61
2023/07/18 09:21:24;;;;;;;9.70;2.60;;;;;;;21.20;74.97;100084.31;5011199;28;20714;-63
2023/07/18 09:23:55;;;;;;;14.27;3.10;;;;;;;21.21;74.45;100078.03;4999910;28;20276;-63
2023/07/18 09:26:29;;;;;;;9.27;3.10;;;;;;;21.28;73.62;100084.66;5011119;28;20291;-61
2023/07/18 09:29:02;;;;;;;4.63;2.90;;;;;;;21.11;73.41;100088.38;5002008;28;20539;-61
2023/07/18 09:31:35;;;;;;;13.53;3.03;;;;;;;21.10;73.88;100100.81;5011166;28;20403;-65
2023/07/18 09:34:14;;;;;;;8.70;3.07;;;;;;;21.13;73.99;100096.25;5000279;28;20233;-63
2023/07/18 09:36:57;;;;;;;11.82;3.42;;;;;;;21.13;74.04;100090.94;5002601;28;20396;-62
2023/07/18 09:39:31;;;;;;;10.73;3.27;;;;;;;21.08;74.09;100089.41;5011838;28;20048;-64
2023/07/18 09:42:04;;;;;;;14.10;3.10;;;;;;;21.07;74.14;100082.41;5001064;28;20130;-63
2023/07/18 09:44:47;;;;;;;10.53;3.00;;;;;;;20.96;73.57;100074.25;5011390;28;20775;-61
2023/07/18 09:47:21;;;;;;;8.60;3.97;;;;;;;20.81;74.00;100075.22;5010239;28;20376;-59
2023/07/18 09:49:53;;;;;;;18.40;4.00;;;;;;;20.65;74.50;100081.47;5001181;28;20292;-60
2023/07/18 09:52:28;;;;;;;13.50;3.17;;;;;;;20.48;75.09;100076.28;5010870;28;20334;-60
2023/07/18 09:55:04;;;;;;;12.30;3.70;;;;;;;20.40;75.64;100081.22;4999868;28;20286;-61
2023/07/18 09:57:38;;;;;;;6.50;3.97;;;;;;;20.23;75.75;100080.41;5010680;28;20296;-63
2023/07/18 10:00:15;;;;;;;7.63;3.70;;;;;;;19.75;76.37;100042.56;4999971;28;20280;-62
2023/07/18 10:02:47;;;;;;;7.00;2.90;;;;;;;19.84;77.47;100088.91;5063260;28;20636;-58
2023/07/18 10:05:21;;;;;;;7.97;3.20;;;;;;;19.61;78.05;100092.84;5072535;28;20270;-62
2023/07/18 10:07:55;;;;;;;11.63;3.37;;;;;;;19.43;79.43;100091.22;5062054;28;20296;-62
2023/07/18 10:10:27;;;;;;;8.60;3.10;;;;;;;19.25;81.03;100101.91;5072150;28;20396;-58
2023/07/18 10:13:02;;;;;;;5.63;2.73;;;;;;;19.06;82.12;100101.19;5062730;28;20699;-62
2023/07/18 10:16:13;;;;;;;14.90;3.97;;;;;;;18.90;83.09;100104.66;5071515;28;20393;-62
2023/07/18 10:18:47;;;;;;;12.07;2.90;;;;;;;18.75;83.96;100108.09;5060830;28;20377;-64
2023/07/18 10:21:31;;;;;;;9.93;3.20;;;;;;;18.38;84.92;100066.84;5073129;28;21045;-62
2023/07/18 10:24:28;;;;;;;25.03;3.57;;;;;;;18.52;85.83;100101.34;5060890;28;20302;-62
2023/07/18 10:27:08;;;;;;;17.50;4.37;;;;;;;18.36;86.25;100105.72;5062732;28;22365;-60
2023/07/18 10:29:41;;;;;;;19.40;4.13;;;;;;;18.24;86.84;100112.50;5072787;28;20294;-56
2023/07/18 10:32:14;;;;;;;10.57;3.67;;;;;;;18.18;87.60;100128.69;5061760;28;20290;-63
2023/07/18 10:34:55;;;;;;;16.37;3.60;;;;;;;17.56;88.48;100027.75;5061700;28;20278;-61
2023/07/18 10:37:27;;;;;;;16.77;5.33;;;;;;;18.08;88.66;100118.53;5072243;28;20298;-61
2023/07/18 10:40:01;;;;;;;12.70;6.77;;;;;;;18.04;88.99;100121.41;5062996;28;20313;-61
2023/07/18 10:42:34;;;;;;;16.60;6.00;;;;;;;18.01;89.01;100124.22;5072235;28;20304;-62
2023/07/18 10:45:08;;;;;;;12.17;4.60;;;;;;;17.94;89.00;100134.22;5061025;28;20857;-63
2023/07/18 10:47:42;;;;;;;19.23;4.33;;;;;;;17.84;89.23;100135.59;5072327;28;20743;-58
2023/07/18 10:50:16;;;;;;;16.70;3.43;;;;;;;17.78;89.64;100130.59;5062351;28;20751;-60
2023/07/18 10:52:49;;;;;;;8.93;3.40;;;;;;;17.64;90.27;100134.75;5060412;28;20673;-61
2023/07/18 10:55:22;;;;;;;21.13;5.00;;;;;;;17.43;91.08;100131.34;5070989;28;20297;-60
2023/07/18 10:58:01;;;;;;;9.43;4.10;;;;;;;17.32;91.60;100116.91;5061682;28;20283;-65
2023/07/18 11:00:34;;;;;;;9.93;3.80;;;;;;;17.41;92.04;100140.25;5071643;28;20285;-59
2023/07/18 11:03:07;;;;;;;10.83;4.13;;;;;;;17.37;92.26;100141.31;5060281;28;20086;-64
2023/07/18 11:05:42;;;;;;;13.47;6.67;;;;;;;17.28;92.95;100142.63;5071234;28;20289;-63
2023/07/18 11:08:25;;;;;;;11.33;6.70;;;;;;;17.21;93.75;100163.16;5060831;28;20286;-61
2023/07/18 11:10:58;;;;;;;10.07;4.40;;;;;;;17.10;94.12;100160.16;5061613;28;20331;-61
2023/07/18 11:13:32;;;;;;;15.83;7.00;;;;;;;16.89;94.51;100129.44;5072647;28;20601;-63
2023/07/18 11:16:08;;;;;;;16.80;7.97;;;;;;;17.04;94.98;100157.78;5059679;28;20308;-64
2023/07/18 11:18:43;;;;;;;35.87;10.00;;;;;;;16.97;95.16;100158.97;5072399;28;20288;-64
2023/07/18 11:21:20;;;;;;;12.00;4.30;;;;;;;16.90;95.56;100152.25;5060985;28;20582;-60
2023/07/18 11:23:52;;;;;;;13.33;3.80;;;;;;;16.84;95.83;100152.53;5061333;28;20392;-60
2023/07/18 11:26:24;;;;;;;11.30;3.63;;;;;;;16.81;95.98;100157.03;5071913;28;20282;-62
2023/07/18 11:28:58;;;;;;;11.70;4.67;;;;;;;16.78;96.23;100149.25;5060247;28;20266;-61
2023/07/18 11:31:32;;;;;;;12.77;4.90;;;;;;;16.72;96.15;100144.19;5070559;28;20291;-61
2023/07/18 11:34:23;;;;;;;10.87;3.20;;;;;;;16.70;96.23;100150.44;5061214;28;20740;-63
2023/07/18 11:36:56;;;;;;;9.20;3.77;;;;;;;16.62;96.51;100137.59;5060412;28;20488;-64
2023/07/18 11:39:32;;;;;;;9.77;3.43;;;;;;;16.54;96.78;100137.09;5072437;28;20285;-58
2023/07/18 11:42:10;;;;;;;8.03;3.00;;;;;;;16.52;97.26;100128.38;5074224;28;20646;-60
2023/07/18 11:44:45;;;;;;;9.77;3.33;;;;;;;16.50;97.38;100130.22;5080622;28;20293;-59
2023/07/18 11:47:18;;;;;;;11.70;3.70;;;;;;;16.49;97.24;100123.22;5084783;28;20380;-61
2023/07/18 11:49:51;;;;;;;8.47;2.87;;;;;;;16.46;97.07;100123.38;5073804;28;20295;-58